sensor_id;sensor_type;location;lat;lon;timestamp;temperature;humidity
5924;DHT22;2987;50.884;14.818;2023-06-14T00:01:46;10.20;99.90
5924;DHT22;2987;50.884;14.818;2023-06-14T00:04:13;10.00;99.90
5924;DHT22;2987;50.884;14.818;2023-06-14T00:06:43;10.20;99.90
5924;DHT22;2987;50.884;14.818;2023-06-14T00:09:11;10.30;99.90
5924;DHT22;2987;50.884;14.818;2023-06-14T00:11:40;9.90;99.90
5924;DHT22;2987;50.884;14.818;2023-06-14T00:14:06;9.90;99.90
5924;DHT22;2987;50.884;14.818;2023-06-14T00:16:33;9.80;99.90
5924;DHT22;2987;50.884;14.818;2023-06-14T00:19:02;9.80;99.90
5924;DHT22;2987;50.884;14.818;2023-06-14T00:21:31;9.80;99.90
5924;DHT22;2987;50.884;14.818;2023-06-14T00:23:58;9.90;99.90
5924;DHT22;2987;50.884;14.818;2023-06-14T00:26:24;9.60;99.90
5924;DHT22;2987;50.884;14.818;2023-06-14T00:28:53;9.70;99.90
5924;DHT22;2987;50.884;14.818;2023-06-14T00:31:19;9.70;99.90
5924;DHT22;2987;50.884;14.818;2023-06-14T00:33:46;9.60;99.90
5924;DHT22;2987;50.884;14.818;2023-06-14T00:36:12;9.60;99.90
5924;DHT22;2987;50.884;14.818;2023-06-14T00:38:38;9.50;99.90
5924;DHT22;2987;50.884;14.818;2023-06-14T00:41:04;9.50;99.90
5924;DHT22;2987;50.884;14.818;2023-06-14T00:43:30;9.60;99.90
5924;DHT22;2987;50.884;14.818;2023-06-14T00:45:57;9.60;99.90
5924;DHT22;2987;50.884;14.818;2023-06-14T00:48:23;9.60;99.90
5924;DHT22;2987;50.884;14.818;2023-06-14T00:50:50;9.60;99.90
5924;DHT22;2987;50.884;14.818;2023-06-14T00:53:19;9.50;99.90
5924;DHT22;2987;50.884;14.818;2023-06-14T00:55:47;9.80;99.90
5924;DHT22;2987;50.884;14.818;2023-06-14T00:58:16;9.50;99.90
5924;DHT22;2987;50.884;14.818;2023-06-14T01:00:42;9.40;99.90
5924;DHT22;2987;50.884;14.818;2023-06-14T01:03:08;9.40;99.90
5924;DHT22;2987;50.884;14.818;2023-06-14T01:05:39;9.40;99.90
5924;DHT22;2987;50.884;14.818;2023-06-14T01:08:26;9.20;99.90
5924;DHT22;2987;50.884;14.818;2023-06-14T01:11:05;9.30;99.90
5924;DHT22;2987;50.884;14.818;2023-06-14T01:13:38;9.40;99.90
5924;DHT22;2987;50.884;14.818;2023-06-14T01:16:05;9.30;99.90
5924;DHT22;2987;50.884;14.818;2023-06-14T01:18:32;8.90;99.90
5924;DHT22;2987;50.884;14.818;2023-06-14T01:21:02;9.00;99.90
5924;DHT22;2987;50.884;14.818;2023-06-14T01:23:32;8.90;99.90
5924;DHT22;2987;50.884;14.818;2023-06-14T01:25:59;9.10;99.90
5924;DHT22;2987;50.884;14.818;2023-06-14T01:28:31;8.50;99.90
5924;DHT22;2987;50.884;14.818;2023-06-14T01:31:02;8.60;99.90
5924;DHT22;2987;50.884;14.818;2023-06-14T01:33:33;8.60;99.90
5924;DHT22;2987;50.884;14.818;2023-06-14T01:36:01;8.60;99.90
5924;DHT22;2987;50.884;14.818;2023-06-14T01:38:30;8.80;99.90
5924;DHT22;2987;50.884;14.818;2023-06-14T01:40:58;8.60;99.90
5924;DHT22;2987;50.884;14.818;2023-06-14T01:43:25;8.60;99.90
5924;DHT22;2987;50.884;14.818;2023-06-14T01:45:53;8.50;99.90
5924;DHT22;2987;50.884;14.818;2023-06-14T01:48:21;8.50;99.90
5924;DHT22;2987;50.884;14.818;2023-06-14T01:50:49;8.60;99.90
5924;DHT22;2987;50.884;14.818;2023-06-14T01:53:15;8.50;99.90
5924;DHT22;2987;50.884;14.818;2023-06-14T01:55:41;8.60;99.90
5924;DHT22;2987;50.884;14.818;2023-06-14T01:58:10;8.50;99.90
5924;DHT22;2987;50.884;14.818;2023-06-14T02:00:36;8.40;99.90
5924;DHT22;2987;50.884;14.818;2023-06-14T02:03:04;8.60;99.90
5924;DHT22;2987;50.884;14.818;2023-06-14T02:05:30;8.40;99.90
5924;DHT22;2987;50.884;14.818;2023-06-14T02:07:56;8.50;99.90
5924;DHT22;2987;50.884;14.818;2023-06-14T02:10:22;8.30;99.90
5924;DHT22;2987;50.884;14.818;2023-06-14T02:12:48;8.10;99.90
5924;DHT22;2987;50.884;14.818;2023-06-14T02:15:14;8.10;99.90
5924;DHT22;2987;50.884;14.818;2023-06-14T02:17:46;8.00;99.90
5924;DHT22;2987;50.884;14.818;2023-06-14T02:20:13;8.00;99.90
5924;DHT22;2987;50.884;14.818;2023-06-14T02:22:40;8.00;99.90
5924;DHT22;2987;50.884;14.818;2023-06-14T02:25:07;7.90;99.90
5924;DHT22;2987;50.884;14.818;2023-06-14T02:27:34;8.00;99.90
5924;DHT22;2987;50.884;14.818;2023-06-14T02:30:00;7.90;99.90
5924;DHT22;2987;50.884;14.818;2023-06-14T02:32:26;8.00;99.90
5924;DHT22;2987;50.884;14.818;2023-06-14T02:34:53;8.00;99.90
5924;DHT22;2987;50.884;14.818;2023-06-14T02:37:20;8.10;99.90
5924;DHT22;2987;50.884;14.818;2023-06-14T02:39:46;8.10;99.90
5924;DHT22;2987;50.884;14.818;2023-06-14T02:42:12;7.90;99.90
5924;DHT22;2987;50.884;14.818;2023-06-14T02:44:38;7.90;99.90
5924;DHT22;2987;50.884;14.818;2023-06-14T02:47:04;7.70;99.90
5924;DHT22;2987;50.884;14.818;2023-06-14T02:49:31;8.00;99.90
5924;DHT22;2987;50.884;14.818;2023-06-14T02:51:57;8.10;99.90
5924;DHT22;2987;50.884;14.818;2023-06-14T02:54:22;8.00;99.90
5924;DHT22;2987;50.884;14.818;2023-06-14T02:56:49;7.80;99.90
5924;DHT22;2987;50.884;14.818;2023-06-14T02:59:15;8.00;99.90
5924;DHT22;2987;50.884;14.818;2023-06-14T03:01:42;8.00;99.90
5924;DHT22;2987;50.884;14.818;2023-06-14T03:04:11;8.00;99.90
5924;DHT22;2987;50.884;14.818;2023-06-14T03:06:40;8.10;99.90
5924;DHT22;2987;50.884;14.818;2023-06-14T03:09:07;7.70;99.90
5924;DHT22;2987;50.884;14.818;2023-06-14T03:11:37;8.10;99.90
5924;DHT22;2987;50.884;14.818;2023-06-14T03:14:03;8.00;99.90
5924;DHT22;2987;50.884;14.818;2023-06-14T03:16:31;8.30;99.90
5924;DHT22;2987;50.884;14.818;2023-06-14T03:18:58;8.30;99.90
5924;DHT22;2987;50.884;14.818;2023-06-14T03:21:28;8.40;99.90
5924;DHT22;2987;50.884;14.818;2023-06-14T03:23:57;8.20;99.90
5924;DHT22;2987;50.884;14.818;2023-06-14T03:26:24;8.30;99.90
5924;DHT22;2987;50.884;14.818;2023-06-14T03:28:53;8.20;99.90
5924;DHT22;2987;50.884;14.818;2023-06-14T03:31:20;8.10;99.90
5924;DHT22;2987;50.884;14.818;2023-06-14T03:33:48;8.20;99.90
5924;DHT22;2987;50.884;14.818;2023-06-14T03:36:14;8.10;99.90
5924;DHT22;2987;50.884;14.818;2023-06-14T03:38:40;8.30;99.90
5924;DHT22;2987;50.884;14.818;2023-06-14T03:41:06;8.30;99.90
5924;DHT22;2987;50.884;14.818;2023-06-14T03:43:32;8.50;99.90
5924;DHT22;2987;50.884;14.818;2023-06-14T03:46:00;8.60;99.90
5924;DHT22;2987;50.884;14.818;2023-06-14T03:48:28;8.40;99.90
5924;DHT22;2987;50.884;14.818;2023-06-14T03:50:54;8.60;99.90
5924;DHT22;2987;50.884;14.818;2023-06-14T03:53:21;8.60;99.90
5924;DHT22;2987;50.884;14.818;2023-06-14T03:55:51;8.60;99.90
5924;DHT22;2987;50.884;14.818;2023-06-14T03:58:20;8.50;99.90
5924;DHT22;2987;50.884;14.818;2023-06-14T04:00:47;8.70;99.90
5924;DHT22;2987;50.884;14.818;2023-06-14T04:03:12;8.90;99.90
5924;DHT22;2987;50.884;14.818;2023-06-14T04:05:41;9.00;99.90
5924;DHT22;2987;50.884;14.818;2023-06-14T04:08:09;8.80;99.90
5924;DHT22;2987;50.884;14.818;2023-06-14T04:10:36;8.80;99.90
5924;DHT22;2987;50.884;14.818;2023-06-14T04:13:02;8.80;99.90
5924;DHT22;2987;50.884;14.818;2023-06-14T04:15:29;9.00;99.90
5924;DHT22;2987;50.884;14.818;2023-06-14T04:17:56;9.30;99.90
5924;DHT22;2987;50.884;14.818;2023-06-14T04:20:23;9.10;99.90
5924;DHT22;2987;50.884;14.818;2023-06-14T04:22:51;9.20;99.90
5924;DHT22;2987;50.884;14.818;2023-06-14T04:25:19;9.30;99.90
5924;DHT22;2987;50.884;14.818;2023-06-14T04:27:46;9.20;99.90
5924;DHT22;2987;50.884;14.818;2023-06-14T04:30:13;9.10;99.90
5924;DHT22;2987;50.884;14.818;2023-06-14T04:32:46;9.20;99.90
5924;DHT22;2987;50.884;14.818;2023-06-14T04:35:12;9.20;99.90
5924;DHT22;2987;50.884;14.818;2023-06-14T04:37:41;9.20;99.90
5924;DHT22;2987;50.884;14.818;2023-06-14T04:40:10;9.20;99.90
5924;DHT22;2987;50.884;14.818;2023-06-14T04:42:37;9.20;99.90
5924;DHT22;2987;50.884;14.818;2023-06-14T04:45:07;9.10;99.90
5924;DHT22;2987;50.884;14.818;2023-06-14T04:47:33;9.40;99.90
5924;DHT22;2987;50.884;14.818;2023-06-14T04:50:00;9.20;99.90
5924;DHT22;2987;50.884;14.818;2023-06-14T04:52:30;9.50;99.90
5924;DHT22;2987;50.884;14.818;2023-06-14T04:54:57;9.60;99.90
5924;DHT22;2987;50.884;14.818;2023-06-14T04:57:25;9.80;99.90
5924;DHT22;2987;50.884;14.818;2023-06-14T04:59:52;9.90;99.90
5924;DHT22;2987;50.884;14.818;2023-06-14T05:02:22;9.90;99.90
5924;DHT22;2987;50.884;14.818;2023-06-14T05:04:50;10.00;99.90
5924;DHT22;2987;50.884;14.818;2023-06-14T05:07:16;10.10;99.90
5924;DHT22;2987;50.884;14.818;2023-06-14T05:09:42;10.30;99.90
5924;DHT22;2987;50.884;14.818;2023-06-14T05:12:10;10.50;99.90
5924;DHT22;2987;50.884;14.818;2023-06-14T05:14:36;10.40;99.90
5924;DHT22;2987;50.884;14.818;2023-06-14T05:17:04;10.30;99.90
5924;DHT22;2987;50.884;14.818;2023-06-14T05:19:31;10.70;99.90
5924;DHT22;2987;50.884;14.818;2023-06-14T05:21:57;11.10;99.90
5924;DHT22;2987;50.884;14.818;2023-06-14T05:24:23;11.00;99.90
5924;DHT22;2987;50.884;14.818;2023-06-14T05:26:49;11.40;99.90
5924;DHT22;2987;50.884;14.818;2023-06-14T05:29:15;11.30;99.90
5924;DHT22;2987;50.884;14.818;2023-06-14T05:31:41;11.50;99.90
5924;DHT22;2987;50.884;14.818;2023-06-14T05:34:07;11.80;99.90
5924;DHT22;2987;50.884;14.818;2023-06-14T05:36:32;11.80;99.90
5924;DHT22;2987;50.884;14.818;2023-06-14T05:38:58;11.90;99.90
5924;DHT22;2987;50.884;14.818;2023-06-14T05:41:27;11.90;99.90
5924;DHT22;2987;50.884;14.818;2023-06-14T05:43:55;12.00;99.90
5924;DHT22;2987;50.884;14.818;2023-06-14T05:46:21;12.00;99.90
5924;DHT22;2987;50.884;14.818;2023-06-14T05:48:51;12.00;99.90
5924;DHT22;2987;50.884;14.818;2023-06-14T05:51:18;12.20;99.90
5924;DHT22;2987;50.884;14.818;2023-06-14T05:53:45;12.10;99.90
5924;DHT22;2987;50.884;14.818;2023-06-14T05:56:12;12.10;99.90
5924;DHT22;2987;50.884;14.818;2023-06-14T05:58:38;12.10;99.90
5924;DHT22;2987;50.884;14.818;2023-06-14T06:01:04;12.20;99.90
5924;DHT22;2987;50.884;14.818;2023-06-14T06:03:31;12.20;99.90
5924;DHT22;2987;50.884;14.818;2023-06-14T06:05:57;12.30;99.90
5924;DHT22;2987;50.884;14.818;2023-06-14T06:08:22;12.20;99.90
5924;DHT22;2987;50.884;14.818;2023-06-14T06:10:48;12.40;99.90
5924;DHT22;2987;50.884;14.818;2023-06-14T06:13:14;12.50;99.90
5924;DHT22;2987;50.884;14.818;2023-06-14T06:15:41;12.70;99.90
5924;DHT22;2987;50.884;14.818;2023-06-14T06:18:07;13.00;99.90
5924;DHT22;2987;50.884;14.818;2023-06-14T06:20:32;13.40;99.90
5924;DHT22;2987;50.884;14.818;2023-06-14T06:22:59;13.90;99.90
5924;DHT22;2987;50.884;14.818;2023-06-14T06:25:26;14.40;99.90
5924;DHT22;2987;50.884;14.818;2023-06-14T06:27:53;14.80;99.90
5924;DHT22;2987;50.884;14.818;2023-06-14T06:30:19;15.00;99.90
5924;DHT22;2987;50.884;14.818;2023-06-14T06:32:46;15.20;99.90
5924;DHT22;2987;50.884;14.818;2023-06-14T06:35:13;15.70;99.90
5924;DHT22;2987;50.884;14.818;2023-06-14T06:37:41;16.20;99.90
5924;DHT22;2987;50.884;14.818;2023-06-14T06:40:08;16.40;99.90
5924;DHT22;2987;50.884;14.818;2023-06-14T06:42:34;16.50;99.90
5924;DHT22;2987;50.884;14.818;2023-06-14T06:47:31;17.00;99.90
5924;DHT22;2987;50.884;14.818;2023-06-14T06:49:57;17.30;99.90
5924;DHT22;2987;50.884;14.818;2023-06-14T06:52:23;17.40;99.90
5924;DHT22;2987;50.884;14.818;2023-06-14T06:54:49;17.60;99.90
5924;DHT22;2987;50.884;14.818;2023-06-14T06:57:16;18.00;99.90
5924;DHT22;2987;50.884;14.818;2023-06-14T06:59:42;18.40;99.90
5924;DHT22;2987;50.884;14.818;2023-06-14T07:02:08;18.50;99.90
5924;DHT22;2987;50.884;14.818;2023-06-14T07:04:34;18.50;99.90
5924;DHT22;2987;50.884;14.818;2023-06-14T07:07:00;18.80;99.90
5924;DHT22;2987;50.884;14.818;2023-06-14T07:09:27;18.90;99.90
5924;DHT22;2987;50.884;14.818;2023-06-14T07:11:53;19.30;99.90
5924;DHT22;2987;50.884;14.818;2023-06-14T07:14:19;19.60;99.90
5924;DHT22;2987;50.884;14.818;2023-06-14T07:16:45;19.80;99.90
5924;DHT22;2987;50.884;14.818;2023-06-14T07:19:12;20.20;99.90
5924;DHT22;2987;50.884;14.818;2023-06-14T07:21:38;20.40;99.90
5924;DHT22;2987;50.884;14.818;2023-06-14T07:24:05;20.60;99.90
5924;DHT22;2987;50.884;14.818;2023-06-14T07:26:33;20.80;99.90
5924;DHT22;2987;50.884;14.818;2023-06-14T07:28:59;20.90;99.90
5924;DHT22;2987;50.884;14.818;2023-06-14T07:31:25;20.80;99.90
5924;DHT22;2987;50.884;14.818;2023-06-14T07:33:52;21.10;99.90
5924;DHT22;2987;50.884;14.818;2023-06-14T07:36:18;21.20;99.90
5924;DHT22;2987;50.884;14.818;2023-06-14T07:38:44;21.00;99.90
5924;DHT22;2987;50.884;14.818;2023-06-14T07:41:11;20.80;99.90
5924;DHT22;2987;50.884;14.818;2023-06-14T07:43:37;20.70;99.90
5924;DHT22;2987;50.884;14.818;2023-06-14T07:46:04;20.70;99.90
5924;DHT22;2987;50.884;14.818;2023-06-14T07:48:30;20.80;99.90
5924;DHT22;2987;50.884;14.818;2023-06-14T07:50:56;20.90;99.90
5924;DHT22;2987;50.884;14.818;2023-06-14T07:53:23;20.60;99.90
5924;DHT22;2987;50.884;14.818;2023-06-14T07:55:48;20.30;99.90
5924;DHT22;2987;50.884;14.818;2023-06-14T07:58:14;20.20;99.90
5924;DHT22;2987;50.884;14.818;2023-06-14T08:00:40;20.30;99.90
5924;DHT22;2987;50.884;14.818;2023-06-14T08:03:07;20.60;99.90
5924;DHT22;2987;50.884;14.818;2023-06-14T08:05:33;20.80;99.90
5924;DHT22;2987;50.884;14.818;2023-06-14T08:08:00;21.00;99.90
5924;DHT22;2987;50.884;14.818;2023-06-14T08:10:27;21.20;99.90
5924;DHT22;2987;50.884;14.818;2023-06-14T08:12:53;21.70;99.90
5924;DHT22;2987;50.884;14.818;2023-06-14T08:15:19;22.00;99.90
5924;DHT22;2987;50.884;14.818;2023-06-14T08:17:45;22.10;99.90
5924;DHT22;2987;50.884;14.818;2023-06-14T08:20:12;22.30;99.90
5924;DHT22;2987;50.884;14.818;2023-06-14T08:22:42;22.10;99.90
5924;DHT22;2987;50.884;14.818;2023-06-14T08:25:09;21.90;99.90
5924;DHT22;2987;50.884;14.818;2023-06-14T08:27:35;22.10;99.90
5924;DHT22;2987;50.884;14.818;2023-06-14T08:30:02;22.30;99.90
5924;DHT22;2987;50.884;14.818;2023-06-14T08:32:30;22.60;99.90
5924;DHT22;2987;50.884;14.818;2023-06-14T08:34:56;22.40;99.90
5924;DHT22;2987;50.884;14.818;2023-06-14T08:37:22;22.30;99.90
5924;DHT22;2987;50.884;14.818;2023-06-14T08:39:47;22.30;99.90
5924;DHT22;2987;50.884;14.818;2023-06-14T08:42:14;22.50;99.90
5924;DHT22;2987;50.884;14.818;2023-06-14T08:44:41;22.80;99.90
5924;DHT22;2987;50.884;14.818;2023-06-14T08:47:08;22.70;99.90
5924;DHT22;2987;50.884;14.818;2023-06-14T08:49:36;22.50;99.90
5924;DHT22;2987;50.884;14.818;2023-06-14T08:52:05;22.50;99.90
5924;DHT22;2987;50.884;14.818;2023-06-14T08:54:34;22.10;99.90
5924;DHT22;2987;50.884;14.818;2023-06-14T08:57:11;22.30;99.90
5924;DHT22;2987;50.884;14.818;2023-06-14T08:59:47;22.20;99.90
5924;DHT22;2987;50.884;14.818;2023-06-14T09:02:15;22.20;99.90
5924;DHT22;2987;50.884;14.818;2023-06-14T09:04:44;22.30;99.90
5924;DHT22;2987;50.884;14.818;2023-06-14T09:07:11;22.60;99.90
5924;DHT22;2987;50.884;14.818;2023-06-14T09:09:40;22.70;99.90
5924;DHT22;2987;50.884;14.818;2023-06-14T09:12:10;22.80;99.90
5924;DHT22;2987;50.884;14.818;2023-06-14T09:14:36;22.90;99.90
5924;DHT22;2987;50.884;14.818;2023-06-14T09:17:06;23.00;99.90
5924;DHT22;2987;50.884;14.818;2023-06-14T09:19:34;23.00;99.90
5924;DHT22;2987;50.884;14.818;2023-06-14T09:22:03;23.40;99.90
5924;DHT22;2987;50.884;14.818;2023-06-14T09:24:30;23.80;99.90
5924;DHT22;2987;50.884;14.818;2023-06-14T09:26:56;23.80;99.90
5924;DHT22;2987;50.884;14.818;2023-06-14T09:29:23;23.40;99.90
5924;DHT22;2987;50.884;14.818;2023-06-14T09:31:49;23.30;99.90
5924;DHT22;2987;50.884;14.818;2023-06-14T09:34:16;23.00;99.90
5924;DHT22;2987;50.884;14.818;2023-06-14T09:36:45;22.90;99.90
5924;DHT22;2987;50.884;14.818;2023-06-14T09:39:17;22.60;99.90
5924;DHT22;2987;50.884;14.818;2023-06-14T09:41:43;22.60;99.90
5924;DHT22;2987;50.884;14.818;2023-06-14T09:44:10;22.00;99.90
5924;DHT22;2987;50.884;14.818;2023-06-14T09:46:38;21.80;99.90
5924;DHT22;2987;50.884;14.818;2023-06-14T09:49:05;22.00;99.90
5924;DHT22;2987;50.884;14.818;2023-06-14T09:51:31;22.00;99.90
5924;DHT22;2987;50.884;14.818;2023-06-14T09:53:59;21.80;99.90
5924;DHT22;2987;50.884;14.818;2023-06-14T09:56:28;21.90;99.90
5924;DHT22;2987;50.884;14.818;2023-06-14T09:58:57;21.80;99.90
5924;DHT22;2987;50.884;14.818;2023-06-14T10:01:24;21.80;99.90
5924;DHT22;2987;50.884;14.818;2023-06-14T10:03:55;21.90;99.90
5924;DHT22;2987;50.884;14.818;2023-06-14T10:06:25;22.00;99.90
5924;DHT22;2987;50.884;14.818;2023-06-14T10:08:56;21.80;99.90
5924;DHT22;2987;50.884;14.818;2023-06-14T10:11:23;21.50;99.90
5924;DHT22;2987;50.884;14.818;2023-06-14T10:13:51;21.40;99.90
5924;DHT22;2987;50.884;14.818;2023-06-14T10:19:18;21.60;99.90
5924;DHT22;2987;50.884;14.818;2023-06-14T10:21:58;22.10;99.90
5924;DHT22;2987;50.884;14.818;2023-06-14T10:26:59;22.70;99.90
5924;DHT22;2987;50.884;14.818;2023-06-14T10:29:26;23.10;99.90
5924;DHT22;2987;50.884;14.818;2023-06-14T10:31:59;23.20;99.90
5924;DHT22;2987;50.884;14.818;2023-06-14T10:34:30;23.50;99.90
5924;DHT22;2987;50.884;14.818;2023-06-14T10:37:06;23.70;99.90
5924;DHT22;2987;50.884;14.818;2023-06-14T10:39:39;23.60;99.90
5924;DHT22;2987;50.884;14.818;2023-06-14T10:42:07;23.20;99.90
5924;DHT22;2987;50.884;14.818;2023-06-14T10:44:38;23.30;99.90
5924;DHT22;2987;50.884;14.818;2023-06-14T10:47:10;23.40;99.90
5924;DHT22;2987;50.884;14.818;2023-06-14T10:49:40;23.40;99.90
5924;DHT22;2987;50.884;14.818;2023-06-14T10:52:12;23.60;99.90
5924;DHT22;2987;50.884;14.818;2023-06-14T10:55:04;23.80;99.90
5924;DHT22;2987;50.884;14.818;2023-06-14T10:59:59;24.40;99.40
5924;DHT22;2987;50.884;14.818;2023-06-14T11:02:46;24.10;97.60
5924;DHT22;2987;50.884;14.818;2023-06-14T11:05:19;24.20;98.90
5924;DHT22;2987;50.884;14.818;2023-06-14T11:10:45;24.00;97.70
5924;DHT22;2987;50.884;14.818;2023-06-14T11:13:11;24.10;97.70
5924;DHT22;2987;50.884;14.818;2023-06-14T11:18:04;23.80;99.20
5924;DHT22;2987;50.884;14.818;2023-06-14T11:20:33;23.50;99.90
5924;DHT22;2987;50.884;14.818;2023-06-14T11:22:59;23.30;99.80
5924;DHT22;2987;50.884;14.818;2023-06-14T11:25:26;23.00;99.30
5924;DHT22;2987;50.884;14.818;2023-06-14T11:27:54;22.70;99.00
5924;DHT22;2987;50.884;14.818;2023-06-14T11:30:21;22.70;98.80
5924;DHT22;2987;50.884;14.818;2023-06-14T11:32:50;22.40;98.40
5924;DHT22;2987;50.884;14.818;2023-06-14T11:35:19;22.30;99.30
5924;DHT22;2987;50.884;14.818;2023-06-14T11:37:45;22.20;99.90
5924;DHT22;2987;50.884;14.818;2023-06-14T11:40:12;22.50;99.90
5924;DHT22;2987;50.884;14.818;2023-06-14T11:42:40;22.80;99.90
5924;DHT22;2987;50.884;14.818;2023-06-14T11:45:09;23.10;99.90
5924;DHT22;2987;50.884;14.818;2023-06-14T11:47:37;23.40;98.40
5924;DHT22;2987;50.884;14.818;2023-06-14T11:50:06;23.60;98.40
5924;DHT22;2987;50.884;14.818;2023-06-14T11:52:35;23.90;97.40
5924;DHT22;2987;50.884;14.818;2023-06-14T11:55:02;24.00;98.10
5924;DHT22;2987;50.884;14.818;2023-06-14T11:57:36;23.90;99.50
5924;DHT22;2987;50.884;14.818;2023-06-14T12:00:05;23.90;96.70
5924;DHT22;2987;50.884;14.818;2023-06-14T12:02:38;23.90;97.80
5924;DHT22;2987;50.884;14.818;2023-06-14T12:05:05;24.20;94.00
5924;DHT22;2987;50.884;14.818;2023-06-14T12:07:37;24.20;95.60
5924;DHT22;2987;50.884;14.818;2023-06-14T12:10:04;24.10;94.80
5924;DHT22;2987;50.884;14.818;2023-06-14T12:12:37;24.30;94.10
5924;DHT22;2987;50.884;14.818;2023-06-14T12:15:05;24.60;93.40
5924;DHT22;2987;50.884;14.818;2023-06-14T12:17:33;24.80;96.80
5924;DHT22;2987;50.884;14.818;2023-06-14T12:20:09;25.10;94.20
5924;DHT22;2987;50.884;14.818;2023-06-14T12:22:37;25.10;94.30
5924;DHT22;2987;50.884;14.818;2023-06-14T12:25:04;24.80;95.80
5924;DHT22;2987;50.884;14.818;2023-06-14T12:27:31;24.50;94.70
5924;DHT22;2987;50.884;14.818;2023-06-14T12:30:01;24.20;95.50
5924;DHT22;2987;50.884;14.818;2023-06-14T12:32:28;23.90;96.40
5924;DHT22;2987;50.884;14.818;2023-06-14T12:34:54;23.20;96.70
5924;DHT22;2987;50.884;14.818;2023-06-14T12:37:20;22.90;96.10
5924;DHT22;2987;50.884;14.818;2023-06-14T12:39:47;22.70;95.20
5924;DHT22;2987;50.884;14.818;2023-06-14T12:42:13;22.70;95.70
5924;DHT22;2987;50.884;14.818;2023-06-14T12:44:40;22.60;94.00
5924;DHT22;2987;50.884;14.818;2023-06-14T12:47:07;22.60;94.80
5924;DHT22;2987;50.884;14.818;2023-06-14T12:49:33;22.60;95.40
5924;DHT22;2987;50.884;14.818;2023-06-14T12:51:59;22.40;96.30
5924;DHT22;2987;50.884;14.818;2023-06-14T12:54:25;22.20;97.10
5924;DHT22;2987;50.884;14.818;2023-06-14T12:56:52;21.90;94.90
5924;DHT22;2987;50.884;14.818;2023-06-14T12:59:18;21.80;96.70
5924;DHT22;2987;50.884;14.818;2023-06-14T13:01:44;21.70;95.80
5924;DHT22;2987;50.884;14.818;2023-06-14T13:04:11;21.60;96.90
5924;DHT22;2987;50.884;14.818;2023-06-14T13:06:37;21.60;97.00
5924;DHT22;2987;50.884;14.818;2023-06-14T13:09:03;21.80;97.80
5924;DHT22;2987;50.884;14.818;2023-06-14T13:11:29;22.30;97.40
5924;DHT22;2987;50.884;14.818;2023-06-14T13:13:56;22.50;97.50
5924;DHT22;2987;50.884;14.818;2023-06-14T13:16:22;22.80;95.50
5924;DHT22;2987;50.884;14.818;2023-06-14T13:18:48;22.90;98.90
5924;DHT22;2987;50.884;14.818;2023-06-14T13:23:39;23.70;97.60
5924;DHT22;2987;50.884;14.818;2023-06-14T13:26:05;23.90;97.00
5924;DHT22;2987;50.884;14.818;2023-06-14T13:28:31;24.10;96.30
5924;DHT22;2987;50.884;14.818;2023-06-14T13:30:58;24.40;96.70
5924;DHT22;2987;50.884;14.818;2023-06-14T13:33:24;24.60;95.00
5924;DHT22;2987;50.884;14.818;2023-06-14T13:35:50;24.50;93.00
5924;DHT22;2987;50.884;14.818;2023-06-14T13:38:18;24.50;93.90
5924;DHT22;2987;50.884;14.818;2023-06-14T13:40:44;24.60;94.40
5924;DHT22;2987;50.884;14.818;2023-06-14T13:43:10;24.00;91.30
5924;DHT22;2987;50.884;14.818;2023-06-14T13:45:36;23.70;92.90
5924;DHT22;2987;50.884;14.818;2023-06-14T13:48:02;23.50;93.20
5924;DHT22;2987;50.884;14.818;2023-06-14T13:50:28;23.40;92.80
5924;DHT22;2987;50.884;14.818;2023-06-14T13:52:54;23.30;91.30
5924;DHT22;2987;50.884;14.818;2023-06-14T13:55:20;23.10;91.90
5924;DHT22;2987;50.884;14.818;2023-06-14T13:57:47;22.80;92.60
5924;DHT22;2987;50.884;14.818;2023-06-14T14:00:13;22.80;92.90
5924;DHT22;2987;50.884;14.818;2023-06-14T14:02:40;22.50;91.60
5924;DHT22;2987;50.884;14.818;2023-06-14T14:05:07;22.50;93.90
5924;DHT22;2987;50.884;14.818;2023-06-14T14:07:33;22.40;93.40
5924;DHT22;2987;50.884;14.818;2023-06-14T14:10:00;22.30;93.70
5924;DHT22;2987;50.884;14.818;2023-06-14T14:12:26;22.40;92.60
5924;DHT22;2987;50.884;14.818;2023-06-14T14:14:54;22.40;92.30
5924;DHT22;2987;50.884;14.818;2023-06-14T14:17:20;22.50;91.70
5924;DHT22;2987;50.884;14.818;2023-06-14T14:19:47;22.60;94.00
5924;DHT22;2987;50.884;14.818;2023-06-14T14:22:13;22.40;93.70
5924;DHT22;2987;50.884;14.818;2023-06-14T14:24:39;22.30;94.20
5924;DHT22;2987;50.884;14.818;2023-06-14T14:27:05;22.20;93.30
5924;DHT22;2987;50.884;14.818;2023-06-14T14:29:32;22.30;94.00
5924;DHT22;2987;50.884;14.818;2023-06-14T14:31:58;22.20;94.00
5924;DHT22;2987;50.884;14.818;2023-06-14T14:34:24;22.20;93.90
5924;DHT22;2987;50.884;14.818;2023-06-14T14:36:50;22.60;95.40
5924;DHT22;2987;50.884;14.818;2023-06-14T14:39:16;22.80;93.40
5924;DHT22;2987;50.884;14.818;2023-06-14T14:41:42;22.80;92.50
5924;DHT22;2987;50.884;14.818;2023-06-14T14:44:08;22.70;94.20
5924;DHT22;2987;50.884;14.818;2023-06-14T14:46:34;22.80;94.20
5924;DHT22;2987;50.884;14.818;2023-06-14T14:49:00;23.10;94.20
5924;DHT22;2987;50.884;14.818;2023-06-14T14:51:26;23.00;93.60
5924;DHT22;2987;50.884;14.818;2023-06-14T14:53:52;22.90;91.80
5924;DHT22;2987;50.884;14.818;2023-06-14T14:56:18;22.90;93.10
5924;DHT22;2987;50.884;14.818;2023-06-14T14:58:44;23.10;93.10
5924;DHT22;2987;50.884;14.818;2023-06-14T15:01:10;23.40;92.00
5924;DHT22;2987;50.884;14.818;2023-06-14T15:03:36;23.60;90.60
5924;DHT22;2987;50.884;14.818;2023-06-14T15:06:02;23.70;89.70
5924;DHT22;2987;50.884;14.818;2023-06-14T15:08:28;23.90;91.80
5924;DHT22;2987;50.884;14.818;2023-06-14T15:10:53;24.10;92.20
5924;DHT22;2987;50.884;14.818;2023-06-14T15:13:19;23.90;92.80
5924;DHT22;2987;50.884;14.818;2023-06-14T15:15:45;24.00;92.60
5924;DHT22;2987;50.884;14.818;2023-06-14T15:18:11;23.80;93.00
5924;DHT22;2987;50.884;14.818;2023-06-14T15:20:37;24.00;92.80
5924;DHT22;2987;50.884;14.818;2023-06-14T15:23:03;24.20;93.60
5924;DHT22;2987;50.884;14.818;2023-06-14T15:25:30;24.30;91.90
5924;DHT22;2987;50.884;14.818;2023-06-14T15:27:57;24.50;92.30
5924;DHT22;2987;50.884;14.818;2023-06-14T15:30:23;24.20;92.80
5924;DHT22;2987;50.884;14.818;2023-06-14T15:32:49;23.80;93.00
5924;DHT22;2987;50.884;14.818;2023-06-14T15:35:17;23.40;92.20
5924;DHT22;2987;50.884;14.818;2023-06-14T15:37:44;23.10;92.80
5924;DHT22;2987;50.884;14.818;2023-06-14T15:40:10;22.60;93.90
5924;DHT22;2987;50.884;14.818;2023-06-14T15:42:36;22.40;94.50
5924;DHT22;2987;50.884;14.818;2023-06-14T15:45:03;22.10;95.20
5924;DHT22;2987;50.884;14.818;2023-06-14T15:47:30;22.00;95.40
5924;DHT22;2987;50.884;14.818;2023-06-14T15:49:56;21.80;97.00
5924;DHT22;2987;50.884;14.818;2023-06-14T15:52:22;21.60;98.20
5924;DHT22;2987;50.884;14.818;2023-06-14T15:54:48;21.60;99.90
5924;DHT22;2987;50.884;14.818;2023-06-14T15:57:14;21.60;99.80
5924;DHT22;2987;50.884;14.818;2023-06-14T15:59:40;21.50;99.40
5924;DHT22;2987;50.884;14.818;2023-06-14T16:02:06;21.20;99.90
5924;DHT22;2987;50.884;14.818;2023-06-14T16:04:32;21.20;99.90
5924;DHT22;2987;50.884;14.818;2023-06-14T16:06:58;21.10;99.90
5924;DHT22;2987;50.884;14.818;2023-06-14T16:09:24;21.20;99.90